createdAt,value
2022-12-04T00:00:46.443Z,99134.59
2022-12-04T00:05:50.523Z,99110.81
2022-12-04T00:10:53.227Z,99092.75
2022-12-04T00:15:56.397Z,99087.03
2022-12-04T00:21:00.623Z,99079.53
2022-12-04T00:26:04.790Z,99074.53
2022-12-04T00:31:08.959Z,99068.78
2022-12-04T00:36:15.653Z,99060.28
2022-12-04T00:41:20.646Z,99051.28
2022-12-04T00:46:23.950Z,99041.09
2022-12-04T00:51:28.226Z,99033.13
2022-12-04T00:56:31.265Z,99023.28
2022-12-04T01:01:34.176Z,99022.47
2022-12-04T01:06:38.375Z,99005.84
2022-12-04T01:11:41.165Z,98994.09
2022-12-04T01:16:44.028Z,99004.53
2022-12-04T01:21:48.178Z,98972.22
2022-12-04T01:26:50.900Z,98977.97
2022-12-04T01:31:53.735Z,98967.78
2022-12-04T01:36:57.842Z,98973.94
2022-12-04T01:42:00.564Z,98957.88
2022-12-04T01:47:03.327Z,98954.31
2022-12-04T01:52:11.818Z,98933.75
2022-12-04T01:57:16.399Z,98934.75
2022-12-04T02:02:22.546Z,98905.22
2022-12-04T02:07:26.810Z,98906.97
2022-12-04T02:12:34.802Z,98894.88
2022-12-04T02:17:40.983Z,98883.78
2022-12-04T02:22:56.169Z,98859.81
2022-12-04T02:28:04.874Z,98843.38
2022-12-04T02:33:13.410Z,98835.09
2022-12-04T02:38:21.543Z,98820.53
2022-12-04T02:43:28.269Z,98796.72
2022-12-04T02:48:33.268Z,98783.69
2022-12-04T02:53:38.689Z,98771.88
2022-12-04T02:58:45.863Z,98756.16
2022-12-04T03:03:53.093Z,98754.06
2022-12-04T03:08:58.301Z,98734.88
2022-12-04T03:14:07.337Z,98734.22
2022-12-04T03:19:12.217Z,98728.31
2022-12-04T03:24:18.680Z,98724.56
2022-12-04T03:29:24.935Z,98703.00
2022-12-04T03:34:31.265Z,98680.69
2022-12-04T03:39:38.007Z,98675.16
2022-12-04T03:44:46.227Z,98663.75
2022-12-04T03:49:52.558Z,98640.97
2022-12-04T03:54:58.178Z,98666.72
2022-12-04T04:00:11.050Z,98646.66
2022-12-04T04:05:15.237Z,98630.13
2022-12-04T04:10:20.026Z,98634.66
2022-12-04T04:15:41.434Z,98619.47
2022-12-04T04:21:03.480Z,98605.19
2022-12-04T04:26:06.555Z,98589.13
2022-12-04T04:31:14.969Z,98589.63
2022-12-04T04:36:24.578Z,98573.03
2022-12-04T04:41:33.453Z,98561.22
2022-12-04T04:46:41.059Z,98534.72
2022-12-04T04:51:44.217Z,98536.81
2022-12-04T04:56:48.739Z,98509.06
2022-12-04T05:01:52.898Z,98503.53
2022-12-04T05:06:55.679Z,98497.94
2022-12-04T05:11:58.378Z,98491.53
2022-12-04T05:17:03.814Z,98463.03
2022-12-04T05:22:08.169Z,98435.09
2022-12-04T05:27:10.897Z,98418.44
2022-12-04T05:32:15.652Z,98411.38
2022-12-04T05:37:18.725Z,98394.50
2022-12-04T05:42:21.569Z,98375.53
2022-12-04T05:47:25.743Z,98373.63
2022-12-04T05:52:28.468Z,98374.44
2022-12-04T05:57:31.217Z,98366.19
2022-12-04T06:02:36.247Z,98375.53
2022-12-04T06:07:39.049Z,98368.59
2022-12-04T06:12:41.820Z,98354.72
2022-12-04T06:17:45.851Z,98343.97
2022-12-04T06:22:48.603Z,98338.38
2022-12-04T06:27:52.339Z,98324.94
2022-12-04T06:32:56.506Z,98311.50
2022-12-04T06:37:59.233Z,98312.03
2022-12-04T06:43:01.944Z,98307.94
2022-12-04T06:48:06.186Z,98296.97
2022-12-04T06:53:08.971Z,98299.41
2022-12-04T06:58:11.741Z,98305.50
2022-12-04T07:03:15.826Z,98294.56
2022-12-04T07:08:19.023Z,98279.09
2022-12-04T07:13:21.795Z,98290.28
2022-12-04T07:18:25.866Z,98283.44
2022-12-04T07:23:28.575Z,98277.44
2022-12-04T07:28:31.326Z,98275.66
2022-12-04T07:33:35.663Z,98280.03
2022-12-04T07:38:38.432Z,98272.31
2022-12-04T07:43:41.851Z,98252.84
2022-12-04T07:48:45.949Z,98266.59
2022-12-04T07:53:48.948Z,98263.16
2022-12-04T07:58:51.626Z,98259.16
2022-12-04T08:03:57.844Z,98246.91
2022-12-04T08:09:04.784Z,98245.06
2022-12-04T08:14:13.423Z,98244.66
2022-12-04T08:19:17.542Z,98229.91
2022-12-04T08:24:20.263Z,98240.28
2022-12-04T08:29:23.006Z,98238.66
2022-12-04T08:34:27.114Z,98226.69
2022-12-04T08:39:29.849Z,98211.06
2022-12-04T08:44:32.552Z,98200.84
2022-12-04T08:49:36.622Z,98199.78
2022-12-04T08:54:39.361Z,98189.53
2022-12-04T08:59:42.294Z,98181.00
2022-12-04T09:04:46.391Z,98182.72
2022-12-04T09:09:49.172Z,98179.44
2022-12-04T09:14:51.869Z,98180.50
2022-12-04T09:20:00.735Z,98186.44
2022-12-04T09:25:05.012Z,98184.78
2022-12-04T09:30:08.970Z,98172.03
2022-12-04T09:35:13.024Z,98176.41
2022-12-04T09:40:24.753Z,98178.94
2022-12-04T09:45:28.109Z,98166.31
2022-12-04T09:50:40.554Z,98166.97
2022-12-04T09:55:47.202Z,98156.75
2022-12-04T10:00:52.577Z,98006.94
2022-12-04T10:06:03.024Z,98085.31
2022-12-04T10:11:12.627Z,98027.91
2022-12-04T10:16:19.573Z,98088.47
2022-12-04T10:21:42.594Z,98078.94
2022-12-04T10:26:47.555Z,98116.34
2022-12-04T10:31:51.170Z,98115.44
2022-12-04T10:36:57.120Z,98093.06
2022-12-04T10:42:00.991Z,98109.81
2022-12-04T10:47:06.120Z,98137.13
2022-12-04T10:52:14.219Z,98154.75
2022-12-04T10:57:17.913Z,98154.50
2022-12-04T11:02:22.950Z,98143.16
2022-12-04T11:07:28.953Z,98137.19
2022-12-04T11:12:31.870Z,98139.78
2022-12-04T11:17:34.732Z,98130.38
2022-12-04T11:22:51.138Z,98117.50
2022-12-04T11:27:55.884Z,98125.28
2022-12-04T11:32:58.850Z,98102.84
2022-12-04T11:38:14.716Z,98101.06
2022-12-04T11:43:18.670Z,98093.38
2022-12-04T11:48:22.377Z,98090.78
2022-12-04T11:53:37.337Z,98099.41
2022-12-04T11:58:53.177Z,98104.59
2022-12-04T12:04:07.224Z,98107.97
2022-12-04T12:09:21.025Z,98090.13
2022-12-04T12:14:27.080Z,98087.66
2022-12-04T12:20:03.835Z,98070.38
2022-12-04T12:25:16.061Z,98081.63
2022-12-04T12:30:20.501Z,98087.59
2022-12-04T12:35:28.608Z,98075.88
2022-12-04T12:40:36.225Z,98096.38
2022-12-04T12:45:45.601Z,98086.44
2022-12-04T12:51:09.078Z,98083.81
2022-12-04T12:56:15.470Z,98073.44
2022-12-04T13:01:20.689Z,98064.66
2022-12-04T13:06:27.412Z,98050.78
2022-12-04T13:11:32.118Z,98044.50
2022-12-04T13:16:37.836Z,98041.75
2022-12-04T13:21:43.860Z,98020.03
2022-12-04T13:26:49.838Z,98001.00
2022-12-04T13:31:58.562Z,97992.84
2022-12-04T13:37:13.463Z,97986.84
2022-12-04T13:42:25.597Z,97998.47
2022-12-04T13:47:30.195Z,97995.09
2022-12-04T13:52:40.639Z,97991.41
2022-12-04T13:57:54.326Z,97985.47
2022-12-04T14:02:58.624Z,97969.16
2022-12-04T14:08:07.160Z,97970.94
2022-12-04T14:13:19.479Z,97972.50
2022-12-04T14:18:29.490Z,97973.47
2022-12-04T14:23:37.745Z,97994.50
2022-12-04T14:28:45.106Z,97982.09
2022-12-04T14:33:51.450Z,97997.47
2022-12-04T14:39:05.476Z,97998.38
2022-12-04T14:44:19.775Z,98007.53
2022-12-04T14:49:32.162Z,97986.38
2022-12-04T14:54:39.852Z,97962.09
2022-12-04T14:59:45.838Z,97950.16
2022-12-04T15:04:48.900Z,97952.22
2022-12-04T15:10:10.463Z,97967.13
2022-12-04T15:15:19.333Z,97949.81
2022-12-04T15:20:22.526Z,97946.81
2022-12-04T15:25:27.522Z,97896.38
2022-12-04T15:30:32.500Z,97915.41
2022-12-04T15:35:35.853Z,97892.28
2022-12-04T15:40:38.775Z,97912.63
2022-12-04T15:45:43.112Z,97879.47
2022-12-04T15:50:56.731Z,97877.06
2022-12-04T15:56:03.439Z,97864.66
2022-12-04T16:01:09.358Z,97864.22
2022-12-04T16:06:16.604Z,97856.28
2022-12-04T16:11:34.018Z,97844.31
2022-12-04T16:16:42.034Z,97820.13
2022-12-04T16:21:45.240Z,97829.03
2022-12-04T16:26:50.334Z,97828.19
2022-12-04T16:32:01.142Z,97817.19
2022-12-04T16:37:12.383Z,97803.28
2022-12-04T16:42:18.602Z,97790.25
2022-12-04T16:47:22.869Z,97798.59
2022-12-04T16:52:25.643Z,97782.72
2022-12-04T16:57:28.475Z,97785.28
2022-12-04T17:02:32.670Z,97796.78
2022-12-04T17:07:35.689Z,97767.88
2022-12-04T17:12:38.581Z,97737.06
2022-12-04T17:17:42.789Z,97734.38
2022-12-04T17:22:45.965Z,97719.81
2022-12-04T17:27:48.933Z,97705.97
2022-12-04T17:32:53.158Z,97677.47
2022-12-04T17:37:58.370Z,97698.97
2022-12-04T17:43:05.260Z,97691.31
2022-12-04T17:48:09.439Z,97676.53
2022-12-04T17:53:12.251Z,97659.47
2022-12-04T17:58:15.098Z,97655.81
2022-12-04T18:03:19.169Z,97586.81
2022-12-04T18:08:21.984Z,97551.31
2022-12-04T18:13:24.997Z,97537.47
2022-12-04T18:18:30.773Z,97523.75
2022-12-04T18:23:33.518Z,97520.88
2022-12-04T18:28:36.361Z,97500.31
2022-12-04T18:33:42.239Z,97492.59
2022-12-04T18:38:46.053Z,97472.69
2022-12-04T18:43:49.155Z,97469.16
2022-12-04T18:48:55.681Z,97443.28
2022-12-04T18:53:59.832Z,97417.25
2022-12-04T18:59:04.606Z,97419.84
2022-12-04T19:04:10.767Z,97413.69
2022-12-04T19:09:15.005Z,97404.13
2022-12-04T19:14:23.696Z,97385.31
2022-12-04T19:19:31.576Z,97384.47
2022-12-04T19:24:34.619Z,97383.69
2022-12-04T19:29:37.471Z,97380.84
2022-12-04T19:34:41.610Z,97380.69
2022-12-04T19:39:44.312Z,97374.06
2022-12-04T19:44:48.690Z,97346.59
2022-12-04T19:49:53.486Z,97350.06
2022-12-04T19:54:56.177Z,97339.72
2022-12-04T19:59:59.178Z,97327.75
2022-12-04T20:05:03.461Z,97333.69
2022-12-04T20:10:07.806Z,97321.47
2022-12-04T20:15:10.813Z,97324.88
2022-12-04T20:20:15.488Z,97311.25
2022-12-04T20:25:18.358Z,97310.81
2022-12-04T20:30:21.058Z,97297.88
2022-12-04T20:35:25.267Z,97271.38
2022-12-04T20:40:27.993Z,97251.66
2022-12-04T20:45:31.109Z,97255.06
2022-12-04T20:50:35.172Z,97238.69
2022-12-04T20:55:37.877Z,97241.16
2022-12-04T21:00:40.579Z,97246.25
2022-12-04T21:05:49.050Z,97234.22
2022-12-04T21:10:51.703Z,97232.47
2022-12-04T21:16:04.888Z,97197.22
2022-12-04T21:21:09.011Z,97204.03
2022-12-04T21:26:12.019Z,97203.19
2022-12-04T21:31:14.882Z,97199.56
2022-12-04T21:36:19.289Z,97182.44
2022-12-04T21:41:45.256Z,97171.34
2022-12-04T21:46:48.313Z,97177.22
2022-12-04T21:51:59.865Z,97166.75
2022-12-04T21:57:02.625Z,97158.16
2022-12-04T22:02:05.339Z,97165.00
2022-12-04T22:07:09.558Z,97139.38
2022-12-04T22:12:41.105Z,97149.63
2022-12-04T22:17:34.947Z,97138.59
2022-12-04T22:22:39.063Z,97138.53
2022-12-04T22:27:41.744Z,97140.28
2022-12-04T22:32:44.763Z,97134.34
2022-12-04T22:37:48.841Z,97128.97
2022-12-04T22:42:51.579Z,97128.19
2022-12-04T22:47:54.271Z,97122.97
2022-12-04T22:52:58.767Z,97121.25
2022-12-04T22:58:01.519Z,97115.22
2022-12-04T23:03:04.278Z,97102.34
2022-12-04T23:08:08.554Z,97107.38
2022-12-04T23:13:11.312Z,97098.69
2022-12-04T23:18:14.011Z,97094.44
2022-12-04T23:23:18.103Z,97091.00
2022-12-04T23:28:20.814Z,97084.91
2022-12-04T23:33:23.543Z,97092.69
2022-12-04T23:38:28.404Z,97076.34
2022-12-04T23:43:31.142Z,97073.81
2022-12-04T23:48:34.053Z,97077.09
2022-12-04T23:53:38.251Z,97073.56
2022-12-04T23:58:41.831Z,97056.47
